Darstellungsparameter: Aktuell verwendete Einstellungen:
Skalierung der Graphiken ... ?
xyx+y,   Skalierungsfaktor:      Skalierung: Modus: x, Faktor: 1
Darstellungszeitraum ... ?
Vom - - bis: - -   Zeitraum: 11.08.2019 - 10.09.2019
Min/Max/Avg-Anzeige ... ?
Zeige MMA aktuell
Zeige MMA Monat
Zeige MMA alles
Zeige --A aktuell
Zeige --A Monat
Zeige --A alles
Keine MMA-Anzeige
MMA:
Keine MMA-Graphiken
MMA-Basis: 11.08.2019 - 10.09.2019
Quicknavigation für Darstellung... ?
Tage:      1T, 2T, 3T, 5T -1T -2T -3T -5T +1T +2T +3T +5T
Wochen: 1W, 2W, 3W -1W -2W -3W +1W +2W +3W
Monate: 1M, 3M, 6M -1M -3M -6M +1M +3M +6M
Jahre:    1J, 3J, 5J, 10J -1J -3J -5J -10J +1J +3J +5J +10J
Nutze für die Darstellung ... ?
Originaldaten oder ...
Mittelwerte Minima Maxima auf...
Stundenbasis Tagesbasis Wochenbasis
Monatsbasis Jahresbasis      Datenbasis: Mittelwerte auf Stundenbasis
Darstellen als:
Statistik (Auto) Statistik J:M      Darstellung:
Zur Graphik,    zurück zur Übersicht aller Sensoren.
 
Tabellarische Datenbersicht: ?
 
Sensor: Nr:Datum:Temp:Feuchte:Taupunkt:
Aussen-T/F 1 11-08-2019 00:00:00 15.75833 C 84.8333 % 13.21 C
2 11-08-2019 01:00:00 15.375 C 87.3333 % 13.28 C
3 11-08-2019 02:00:00 15.7 C 86.5000 % 13.45 C
4 11-08-2019 03:00:00 15.20833 C 86.5000 % 12.97 C
5 11-08-2019 04:00:00 14.43333 C 88.3333 % 12.53 C
6 11-08-2019 05:00:00 13.58333 C 90.1667 % 12 C
7 11-08-2019 06:00:00 13.40833 C 92.6667 % 12.25 C
8 11-08-2019 07:00:00 14.04167 C 92.2500 % 12.8 C
9 11-08-2019 08:00:00 14.9 C 91.3333 % 13.5 C
10 11-08-2019 09:00:00 16.21667 C 87.0833 % 14.07 C
11 11-08-2019 10:00:00 19.375 C 69.7500 % 13.71 C
12 11-08-2019 11:00:00 21.26667 C 59.2500 % 13 C
13 11-08-2019 12:00:00 22.09167 C 55.8333 % 12.86 C
14 11-08-2019 13:00:00 22.775 C 51.0833 % 12.14 C
15 11-08-2019 14:00:00 22.89167 C 52.5833 % 12.69 C
16 11-08-2019 15:00:00 21.50833 C 61.3333 % 13.76 C
17 11-08-2019 16:00:00 20.05 C 70.0000 % 14.41 C
18 11-08-2019 17:00:00 17.18333 C 86.8333 % 14.97 C
19 11-08-2019 18:00:00 16.475 C 90.4167 % 14.9 C
20 11-08-2019 19:00:00 16.075 C 89.6667 % 14.38 C
21 11-08-2019 20:00:00 15.775 C 91.0000 % 14.31 C
22 11-08-2019 21:00:00 15.23333 C 91.7500 % 13.9 C
23 11-08-2019 22:00:00 14.3 C 91.8333 % 12.99 C
24 11-08-2019 23:00:00 14.24167 C 93.3333 % 13.18 C
25 12-08-2019 00:00:00 14.85833 C 92.5833 % 13.67 C
Sensor: Nr:Datum:Temp:Feuchte:Taupunkt:
Aussen-T/F 26 12-08-2019 01:00:00 14.325 C 92.0833 % 13.06 C
27 12-08-2019 02:00:00 13.66667 C 93.4167 % 12.62 C
28 12-08-2019 03:00:00 13.125 C 94.0000 % 12.18 C
29 12-08-2019 04:00:00 12.89167 C 95.0000 % 12.11 C
30 12-08-2019 05:00:00 12.675 C 95.0000 % 11.9 C
31 12-08-2019 06:00:00 12.69167 C 95.5833 % 12 C
32 12-08-2019 07:00:00 13.05833 C 96.0000 % 12.44 C
33 12-08-2019 08:00:00 13.5 C 96.0000 % 12.87 C
34 12-08-2019 09:00:00 15.05 C 92.5833 % 13.86 C
35 12-08-2019 10:00:00 17.65 C 82.5000 % 14.63 C
36 12-08-2019 11:00:00 20.08333 C 72.5833 % 15.01 C
37 12-08-2019 12:00:00 21.275 C 65.6667 % 14.59 C
38 12-08-2019 13:00:00 21.775 C 60.7500 % 13.86 C
39 12-08-2019 14:00:00 22.55 C 60.2500 % 14.46 C
40 12-08-2019 15:00:00 23.475 C 55.5833 % 14.08 C
41 12-08-2019 16:00:00 22.54167 C 58.5000 % 14 C
42 12-08-2019 17:00:00 17.89167 C 77.2500 % 13.85 C
43 12-08-2019 18:00:00 15.925 C 90.0000 % 14.29 C
44 12-08-2019 19:00:00 15.925 C 92.0000 % 14.63 C
45 12-08-2019 20:00:00 15.54167 C 92.1667 % 14.28 C
46 12-08-2019 21:00:00 15.19167 C 93.5833 % 14.16 C
47 12-08-2019 22:00:00 14.975 C 94.0000 % 14.02 C
48 12-08-2019 23:00:00 14.01667 C 92.6667 % 12.85 C
49 13-08-2019 00:00:00 13.55833 C 94.2500 % 12.65 C
50 13-08-2019 01:00:00 13.025 C 94.2500 % 12.12 C
Sensor: Nr:Datum:Temp:Feuchte:Taupunkt:
Aussen-T/F 51 13-08-2019 02:00:00 12.83333 C 95.2500 % 12.09 C
52 13-08-2019 03:00:00 12.9 C 95.5833 % 12.21 C
53 13-08-2019 04:00:00 13.275 C 95.8333 % 12.62 C
54 13-08-2019 05:00:00 13.18333 C 95.0000 % 12.4 C
55 13-08-2019 06:00:00 12.75 C 95.1667 % 12 C
56 13-08-2019 07:00:00 12.9 C 95.2500 % 12.16 C
57 13-08-2019 08:00:00 13.39167 C 92.7500 % 12.24 C
58 13-08-2019 09:00:00 14.85 C 86.8333 % 12.68 C
59 13-08-2019 10:00:00 16.225 C 74.6667 % 11.72 C
60 13-08-2019 11:00:00 17.175 C 67.2500 % 11.06 C
61 13-08-2019 12:00:00 18.13333 C 63.4167 % 11.08 C
62 13-08-2019 13:00:00 19.025 C 55.6667 % 9.97 C
63 13-08-2019 14:00:00 19.875 C 52.8333 % 9.97 C
64 13-08-2019 15:00:00 21.275 C 50.3333 % 10.54 C
65 13-08-2019 16:00:00 21.38333 C 50.9167 % 10.81 C
66 13-08-2019 17:00:00 21.25833 C 50.5000 % 10.57 C
67 13-08-2019 18:00:00 21.175 C 51.8333 % 10.89 C
68 13-08-2019 19:00:00 18.53333 C 64.7500 % 11.78 C
69 13-08-2019 20:00:00 14.91667 C 86.6667 % 12.71 C
70 13-08-2019 21:00:00 13.99167 C 91.3333 % 12.6 C
71 13-08-2019 22:00:00 13.63333 C 92.5833 % 12.45 C
72 13-08-2019 23:00:00 13.36667 C 93.0000 % 12.26 C
73 14-08-2019 00:00:00 13.05 C 93.0833 % 11.96 C
74 14-08-2019 01:00:00 12.61667 C 93.1667 % 11.54 C
75 14-08-2019 02:00:00 12.10833 C 93.1667 % 11.04 C
Sensor: Nr:Datum:Temp:Feuchte:Taupunkt:
Aussen-T/F 76 14-08-2019 03:00:00 11.93333 C 94.0000 % 11 C
77 14-08-2019 04:00:00 11.43333 C 94.0833 % 10.52 C
78 14-08-2019 05:00:00 11.00833 C 95.0000 % 10.24 C
79 14-08-2019 06:00:00 10.61667 C 95.1667 % 9.88 C
80 14-08-2019 07:00:00 10.61667 C 96.0000 % 10.01 C
81 14-08-2019 08:00:00 11.4 C 96.3333 % 10.84 C
82 14-08-2019 09:00:00 13.28333 C 93.5000 % 12.26 C
83 14-08-2019 10:00:00 14.26667 C 91.8333 % 12.96 C
84 14-08-2019 11:00:00 15.66667 C 83.2500 % 12.84 C
85 14-08-2019 12:00:00 18.1 C 62.7500 % 10.89 C
86 14-08-2019 13:00:00 19.59167 C 55.0000 % 10.31 C
87 14-08-2019 14:00:00 21.08333 C 50.1667 % 10.31 C
88 14-08-2019 15:00:00 22.60833 C 49.2500 % 11.44 C
89 14-08-2019 16:00:00 23.74167 C 46.2500 % 11.52 C
90 14-08-2019 17:00:00 24.44167 C 44.7500 % 11.66 C
91 14-08-2019 18:00:00 24 C 46.7500 % 11.92 C
92 14-08-2019 19:00:00 22.31667 C 56.5000 % 13.25 C
93 14-08-2019 20:00:00 19.675 C 67.5833 % 13.51 C
94 14-08-2019 21:00:00 18.1 C 74.0833 % 13.41 C
95 14-08-2019 22:00:00 17.63333 C 76.1667 % 13.39 C
96 14-08-2019 23:00:00 17.4 C 76.5000 % 13.23 C
97 15-08-2019 00:00:00 17.35833 C 76.5833 % 13.21 C
98 15-08-2019 01:00:00 17.38333 C 77.5000 % 13.41 C
99 15-08-2019 02:00:00 16.2 C 88.4167 % 14.28 C
100 15-08-2019 03:00:00 15.275 C 92.4167 % 14.05 C
Sensor: Nr:Datum:Temp:Feuchte:Taupunkt:
Aussen-T/F 101 15-08-2019 04:00:00 14.90833 C 93.6667 % 13.9 C
102 15-08-2019 05:00:00 14.84167 C 94.1667 % 13.91 C
103 15-08-2019 06:00:00 14.96667 C 94.8333 % 14.15 C
104 15-08-2019 07:00:00 15.6 C 92.3333 % 14.36 C
105 15-08-2019 08:00:00 17.59167 C 83.9167 % 14.84 C
106 15-08-2019 09:00:00 18.48333 C 81.5000 % 15.26 C
107 15-08-2019 10:00:00 19.14167 C 81.0000 % 15.8 C
108 15-08-2019 11:00:00 19.28333 C 81.5833 % 16.05 C
109 15-08-2019 12:00:00 19.90833 C 79.6667 % 16.29 C
110 15-08-2019 13:00:00 18.94167 C 88.6667 % 17.03 C
111 15-08-2019 14:00:00 19.73333 C 86.0000 % 17.32 C
112 15-08-2019 15:00:00 20.79167 C 81.3333 % 17.48 C
113 15-08-2019 16:00:00 19.325 C 89.5833 % 17.57 C
114 15-08-2019 17:00:00 17.3 C 92.9167 % 16.14 C
115 15-08-2019 18:00:00 16.975 C 94.1667 % 16.03 C
116 15-08-2019 19:00:00 17.25 C 94.5833 % 16.37 C
117 15-08-2019 20:00:00 17.09167 C 94.5833 % 16.22 C
118 15-08-2019 21:00:00 16.40833 C 94.7500 % 15.56 C
119 15-08-2019 22:00:00 15.93333 C 94.5833 % 15.06 C
120 15-08-2019 23:00:00 15.54167 C 95.0000 % 14.74 C
121 16-08-2019 00:00:00 15.29167 C 95.0833 % 14.51 C
122 16-08-2019 01:00:00 14.63333 C 95.2500 % 13.88 C
123 16-08-2019 02:00:00 14.575 C 96.0000 % 13.94 C
124 16-08-2019 03:00:00 14.64167 C 96.0000 % 14.01 C
125 16-08-2019 04:00:00 14.08333 C 96.0000 % 13.46 C
Sensor: Nr:Datum:Temp:Feuchte:Taupunkt:
Aussen-T/F 126 16-08-2019 05:00:00 13.575 C 96.2500 % 12.99 C
127 16-08-2019 06:00:00 13.69167 C 97.0000 % 13.22 C
128 16-08-2019 07:00:00 14.18333 C 96.5833 % 13.65 C
129 16-08-2019 08:00:00 14.45833 C 95.0833 % 13.68 C
130 16-08-2019 09:00:00 15.54167 C 89.7500 % 13.87 C
131 16-08-2019 10:00:00 16.26667 C 85.7500 % 13.88 C
132 16-08-2019 11:00:00 17.1 C 82.4167 % 14.08 C
133 16-08-2019 12:00:00 18.43333 C 76.4167 % 14.21 C
134 16-08-2019 13:00:00 19.65 C 70.7500 % 14.19 C
135 16-08-2019 14:00:00 20.4 C 67.6667 % 14.22 C
136 16-08-2019 15:00:00 21.90833 C 61.0000 % 14.05 C
137 16-08-2019 16:00:00 23.63333 C 54.5000 % 13.92 C
138 16-08-2019 17:00:00 24.475 C 51.8333 % 13.93 C
139 16-08-2019 18:00:00 24.43333 C 52.0833 % 13.96 C
140 16-08-2019 19:00:00 23.41667 C 58.1667 % 14.73 C
141 16-08-2019 20:00:00 20.075 C 71.5833 % 14.78 C
142 16-08-2019 21:00:00 17.75833 C 80.3333 % 14.33 C
143 16-08-2019 22:00:00 16.88333 C 84.8333 % 14.32 C
144 16-08-2019 23:00:00 16.23333 C 86.5833 % 13.99 C
145 17-08-2019 00:00:00 15.69167 C 87.8333 % 13.68 C
146 17-08-2019 01:00:00 15.86667 C 88.2500 % 13.93 C
147 17-08-2019 02:00:00 15.76667 C 88.6667 % 13.9 C
148 17-08-2019 03:00:00 15.76667 C 91.0833 % 14.32 C
149 17-08-2019 04:00:00 15.69167 C 93.2500 % 14.6 C
150 17-08-2019 05:00:00 15.63333 C 94.0000 % 14.67 C
Sensor: Nr:Datum:Temp:Feuchte:Taupunkt:
Aussen-T/F 151 17-08-2019 06:00:00 15.65833 C 94.0000 % 14.7 C
152 17-08-2019 07:00:00 16.13333 C 94.0000 % 15.17 C
153 17-08-2019 08:00:00 16.95833 C 90.7500 % 15.44 C
154 17-08-2019 09:00:00 18.66667 C 80.1667 % 15.18 C
155 17-08-2019 10:00:00 19.01667 C 81.0833 % 15.7 C
156 17-08-2019 11:00:00 18.59167 C 86.8333 % 16.36 C
157 17-08-2019 12:00:00 19.275 C 85.1667 % 16.72 C
158 17-08-2019 13:00:00 20.68333 C 76.3333 % 16.37 C
159 17-08-2019 14:00:00 21 C 74.9167 % 16.38 C
160 17-08-2019 15:00:00 21.31667 C 74.8333 % 16.67 C
161 17-08-2019 16:00:00 21 C 75.9167 % 16.59 C
162 17-08-2019 17:00:00 20.44167 C 77.9167 % 16.46 C
163 17-08-2019 18:00:00 19.975 C 83.0833 % 17.02 C
164 17-08-2019 19:00:00 19.125 C 88.2500 % 17.13 C
165 17-08-2019 20:00:00 18.325 C 91.0833 % 16.84 C
166 17-08-2019 21:00:00 17.84167 C 92.6667 % 16.64 C
167 17-08-2019 22:00:00 17.74167 C 94.0000 % 16.76 C
168 17-08-2019 23:00:00 17.525 C 94.6667 % 16.66 C
169 18-08-2019 00:00:00 17.4 C 95.0000 % 16.59 C
170 18-08-2019 01:00:00 17.38333 C 95.5833 % 16.67 C
171 18-08-2019 02:00:00 17.225 C 96.0000 % 16.58 C
172 18-08-2019 03:00:00 17.2 C 96.0000 % 16.56 C
173 18-08-2019 04:00:00 17.18333 C 96.0000 % 16.54 C
174 18-08-2019 05:00:00 17.3 C 96.7500 % 16.78 C
175 18-08-2019 06:00:00 17.26667 C 97.0000 % 16.79 C
Sensor: Nr:Datum:Temp:Feuchte:Taupunkt:
Aussen-T/F 176 18-08-2019 07:00:00 17.34167 C 97.0000 % 16.86 C
177 18-08-2019 08:00:00 17.93333 C 97.0000 % 17.45 C
178 18-08-2019 09:00:00 18.85833 C 97.2500 % 18.41 C
179 18-08-2019 10:00:00 19.93333 C 97.4167 % 19.51 C
180 18-08-2019 11:00:00 22.19167 C 92.0833 % 20.84 C
181 18-08-2019 12:00:00 24.075 C 77.7500 % 19.95 C
182 18-08-2019 13:00:00 24.4 C 75.8333 % 19.86 C
183 18-08-2019 14:00:00 24.725 C 74.8333 % 19.96 C
184 18-08-2019 15:00:00 24.7 C 75.8333 % 20.15 C
185 18-08-2019 16:00:00 24.99167 C 72.7500 % 19.76 C
186 18-08-2019 17:00:00 24.35 C 72.7500 % 19.14 C
187 18-08-2019 18:00:00 20.49167 C 91.6667 % 19.09 C
188 18-08-2019 19:00:00 20.00833 C 93.8333 % 18.98 C
189 18-08-2019 20:00:00 19.45833 C 94.6667 % 18.58 C
190 18-08-2019 21:00:00 18.8 C 94.3333 % 17.87 C
191 18-08-2019 22:00:00 17.65 C 94.5000 % 16.76 C
192 18-08-2019 23:00:00 16.59167 C 95.0000 % 15.79 C
193 19-08-2019 00:00:00 16.14167 C 96.0000 % 15.5 C
194 19-08-2019 01:00:00 16.10833 C 96.0000 % 15.47 C
195 19-08-2019 02:00:00 15.81667 C 96.0000 % 15.18 C
196 19-08-2019 03:00:00 15.38333 C 96.0833 % 14.76 C
197 19-08-2019 04:00:00 14.78333 C 96.1667 % 14.18 C
198 19-08-2019 05:00:00 15.125 C 97.0000 % 14.65 C
199 19-08-2019 06:00:00 14.61667 C 96.8333 % 14.12 C
200 19-08-2019 07:00:00 15.025 C 97.1667 % 14.58 C
Sensor: Nr:Datum:Temp:Feuchte:Taupunkt:
Aussen-T/F 201 19-08-2019 08:00:00 15.65833 C 97.0000 % 15.18 C
202 19-08-2019 09:00:00 15.89167 C 96.5833 % 15.35 C
203 19-08-2019 10:00:00 16.63333 C 87.6667 % 14.58 C
204 19-08-2019 11:00:00 18.55833 C 74.7500 % 13.99 C
205 19-08-2019 12:00:00 20.275 C 64.5000 % 13.37 C
206 19-08-2019 13:00:00 21.525 C 58.3333 % 13 C
207 19-08-2019 14:00:00 22.79167 C 53.8333 % 12.96 C
208 19-08-2019 15:00:00 23.46667 C 50.6667 % 12.65 C
209 19-08-2019 16:00:00 23.78333 C 50.6667 % 12.94 C
210 19-08-2019 17:00:00 24.025 C 48.4167 % 12.47 C
211 19-08-2019 18:00:00 23.51667 C 50.5000 % 12.65 C
212 19-08-2019 19:00:00 22.95833 C 56.3333 % 13.81 C
213 19-08-2019 20:00:00 19.71667 C 69.6667 % 14.02 C
214 19-08-2019 21:00:00 17.30833 C 74.8333 % 12.8 C
215 19-08-2019 22:00:00 16.51667 C 80.3333 % 13.12 C
216 19-08-2019 23:00:00 15.21667 C 83.5833 % 12.46 C
217 20-08-2019 00:00:00 13.975 C 86.5833 % 11.77 C
218 20-08-2019 01:00:00 13.21667 C 88.4167 % 11.35 C
219 20-08-2019 02:00:00 12.825 C 89.9167 % 11.21 C
220 20-08-2019 03:00:00 12.21667 C 90.6667 % 10.74 C
221 20-08-2019 04:00:00 11.34167 C 92.5000 % 10.17 C
222 20-08-2019 05:00:00 10.9 C 93.6667 % 9.92 C
223 20-08-2019 06:00:00 10.425 C 94.5000 % 9.58 C
224 20-08-2019 07:00:00 10.78333 C 95.3333 % 10.07 C
225 20-08-2019 08:00:00 11.425 C 95.5833 % 10.74 C
Sensor: Nr:Datum:Temp:Feuchte:Taupunkt:
Aussen-T/F 226 20-08-2019 09:00:00 12.61667 C 95.0833 % 11.85 C
227 20-08-2019 10:00:00 15.26667 C 86.0000 % 12.94 C
228 20-08-2019 11:00:00 17.375 C 73.5833 % 12.61 C
229 20-08-2019 12:00:00 18.625 C 66.8333 % 12.34 C
230 20-08-2019 13:00:00 19.525 C 62.1667 % 12.1 C
231 20-08-2019 14:00:00 20.43333 C 57.3333 % 11.72 C
232 20-08-2019 15:00:00 21.10833 C 56.2500 % 12.06 C
233 20-08-2019 16:00:00 21.41667 C 58.8333 % 13.03 C
234 20-08-2019 17:00:00 20.68333 C 64.4167 % 13.73 C
235 20-08-2019 18:00:00 20.375 C 73.9167 % 15.57 C
236 20-08-2019 19:00:00 18.88333 C 74.8333 % 14.32 C
237 20-08-2019 20:00:00 17.58333 C 75.7500 % 13.26 C
238 20-08-2019 21:00:00 16.76667 C 79.9167 % 13.28 C
239 20-08-2019 22:00:00 15.925 C 83.7500 % 13.18 C
240 20-08-2019 23:00:00 15.175 C 85.0000 % 12.67 C
241 21-08-2019 00:00:00 14.11667 C 87.1667 % 12.02 C
242 21-08-2019 01:00:00 13.55833 C 88.7500 % 11.74 C
243 21-08-2019 02:00:00 12.65833 C 90.7500 % 11.19 C
244 21-08-2019 03:00:00 11.99167 C 92.5000 % 10.81 C
245 21-08-2019 04:00:00 11.30833 C 93.5000 % 10.3 C
246 21-08-2019 05:00:00 10.73333 C 94.0000 % 9.81 C
247 21-08-2019 06:00:00 10.325 C 94.9167 % 9.55 C
248 21-08-2019 07:00:00 10.35833 C 95.3333 % 9.65 C
249 21-08-2019 08:00:00 10.85833 C 96.0000 % 10.25 C
250 21-08-2019 09:00:00 11.86667 C 96.0833 % 11.26 C
Sensor: Nr:Datum:Temp:Feuchte:Taupunkt:
Aussen-T/F 251 21-08-2019 10:00:00 13.33333 C 96.2500 % 12.75 C
252 21-08-2019 11:00:00 15.80833 C 90.0833 % 14.19 C
253 21-08-2019 12:00:00 18.54167 C 73.0000 % 13.61 C
254 21-08-2019 13:00:00 20.375 C 58.0000 % 11.84 C
255 21-08-2019 14:00:00 21.79167 C 52.3333 % 11.6 C
256 21-08-2019 15:00:00 22.95833 C 50.2500 % 12.06 C
257 21-08-2019 16:00:00 24.475 C 42.0000 % 10.73 C
258 21-08-2019 17:00:00 24.65 C 41.6667 % 10.77 C
259 21-08-2019 18:00:00 24.64167 C 44.3333 % 11.7 C
260 21-08-2019 19:00:00 23.46667 C 55.0000 % 13.91 C
261 21-08-2019 20:00:00 19.875 C 64.6667 % 13.03 C
262 21-08-2019 21:00:00 17.49167 C 66.9167 % 11.28 C
263 21-08-2019 22:00:00 16.29167 C 69.1667 % 10.64 C
264 21-08-2019 23:00:00 15.05833 C 77.6667 % 11.19 C
265 22-08-2019 00:00:00 13.475 C 83.5000 % 10.74 C
266 22-08-2019 01:00:00 12.41667 C 86.0000 % 10.14 C
267 22-08-2019 02:00:00 11.66667 C 88.5833 % 9.85 C
268 22-08-2019 03:00:00 11.125 C 90.4167 % 9.62 C
269 22-08-2019 04:00:00 10.55833 C 91.6667 % 9.26 C
270 22-08-2019 05:00:00 9.99167 C 92.6667 % 8.86 C
271 22-08-2019 06:00:00 9.71667 C 93.7500 % 8.76 C
272 22-08-2019 07:00:00 9.7 C 94.6667 % 8.89 C
273 22-08-2019 08:00:00 10.30833 C 95.3333 % 9.6 C
274 22-08-2019 09:00:00 11.525 C 96.0000 % 10.91 C
275 22-08-2019 10:00:00 13.51667 C 94.5833 % 12.66 C
Sensor: Nr:Datum:Temp:Feuchte:Taupunkt:
Aussen-T/F 276 22-08-2019 11:00:00 16.925 C 82.4167 % 13.91 C
277 22-08-2019 12:00:00 20.11667 C 65.8333 % 13.53 C
278 22-08-2019 13:00:00 22.71667 C 53.8333 % 12.89 C
279 22-08-2019 14:00:00 24.08333 C 48.0000 % 12.39 C
280 22-08-2019 15:00:00 25.89167 C 40.9167 % 11.61 C
281 22-08-2019 16:00:00 27.33333 C 37.2500 % 11.47 C
282 22-08-2019 17:00:00 28.01667 C 34.5833 % 10.95 C
283 22-08-2019 18:00:00 28.38333 C 34.8333 % 11.38 C
284 22-08-2019 19:00:00 26.06667 C 49.0000 % 14.52 C
285 22-08-2019 20:00:00 21.49167 C 58.5833 % 13.04 C
286 22-08-2019 21:00:00 18.25 C 68.9167 % 12.45 C
287 22-08-2019 22:00:00 16.40833 C 75.9167 % 12.15 C
288 22-08-2019 23:00:00 14.90833 C 79.3333 % 11.37 C
289 23-08-2019 00:00:00 13.94167 C 82.9167 % 11.09 C
290 23-08-2019 01:00:00 13.26667 C 85.0833 % 10.82 C
291 23-08-2019 02:00:00 12.775 C 86.9167 % 10.65 C
292 23-08-2019 03:00:00 11.975 C 89.1667 % 10.25 C
293 23-08-2019 04:00:00 11.56667 C 91.0833 % 10.16 C
294 23-08-2019 05:00:00 11.06667 C 91.9167 % 9.8 C
295 23-08-2019 06:00:00 10.66667 C 93.2500 % 9.62 C
296 23-08-2019 07:00:00 10.7 C 94.1667 % 9.8 C
297 23-08-2019 08:00:00 11.3 C 94.9167 % 10.52 C
298 23-08-2019 09:00:00 12.35 C 95.0000 % 11.57 C
299 23-08-2019 10:00:00 14.34167 C 94.0833 % 13.4 C
300 23-08-2019 11:00:00 17.6 C 85.0000 % 15.05 C
Sensor: Nr:Datum:Temp:Feuchte:Taupunkt:
Aussen-T/F 301 23-08-2019 12:00:00 21.16667 C 69.0000 % 15.26 C
302 23-08-2019 13:00:00 24.1 C 50.8333 % 13.28 C
303 23-08-2019 14:00:00 26.13333 C 42.2500 % 12.31 C
304 23-08-2019 15:00:00 27.85833 C 38.2500 % 12.34 C
305 23-08-2019 16:00:00 29.15 C 34.9167 % 12.09 C
306 23-08-2019 17:00:00 29.375 C 34.0000 % 11.88 C
307 23-08-2019 18:00:00 28.94167 C 33.0833 % 11.09 C
308 23-08-2019 19:00:00 27.20833 C 46.3333 % 14.7 C
309 23-08-2019 20:00:00 23.01667 C 55.5000 % 13.63 C
310 23-08-2019 21:00:00 20.16667 C 65.0000 % 13.38 C
311 23-08-2019 22:00:00 17.85 C 72.8333 % 12.91 C
312 23-08-2019 23:00:00 16.23333 C 76.7500 % 12.15 C
313 24-08-2019 00:00:00 14.96667 C 80.7500 % 11.69 C
314 24-08-2019 01:00:00 14.05833 C 84.5000 % 11.49 C
315 24-08-2019 02:00:00 13.425 C 86.5000 % 11.22 C
316 24-08-2019 03:00:00 12.7 C 88.7500 % 10.89 C
317 24-08-2019 04:00:00 12.06667 C 90.3333 % 10.53 C
318 24-08-2019 05:00:00 11.66667 C 91.7500 % 10.37 C
319 24-08-2019 06:00:00 11.425 C 92.8333 % 10.31 C
320 24-08-2019 07:00:00 11.575 C 94.0000 % 10.64 C
321 24-08-2019 08:00:00 12.06667 C 94.1667 % 11.16 C
322 24-08-2019 09:00:00 13.23333 C 94.0000 % 12.29 C
323 24-08-2019 10:00:00 15.5 C 91.5000 % 14.12 C
324 24-08-2019 11:00:00 18.88333 C 79.6667 % 15.29 C
325 24-08-2019 12:00:00 22.24167 C 66.0833 % 15.61 C
Sensor: Nr:Datum:Temp:Feuchte:Taupunkt:
Aussen-T/F 326 24-08-2019 13:00:00 25.4 C 52.1667 % 14.88 C
327 24-08-2019 14:00:00 27.05 C 43.6667 % 13.64 C
328 24-08-2019 15:00:00 28.69167 C 37.6667 % 12.84 C
329 24-08-2019 16:00:00 29.81667 C 34.4167 % 12.45 C
330 24-08-2019 17:00:00 30.29167 C 32.7500 % 12.11 C
331 24-08-2019 18:00:00 30.66667 C 34.8333 % 13.38 C
332 24-08-2019 19:00:00 28.56667 C 48.9167 % 16.78 C
333 24-08-2019 20:00:00 24.29167 C 59.2500 % 15.83 C
334 24-08-2019 21:00:00 22.01667 C 66.2500 % 15.43 C
335 24-08-2019 22:00:00 19.78333 C 74.0833 % 15.03 C
336 24-08-2019 23:00:00 18.175 C 78.3333 % 14.34 C
337 25-08-2019 00:00:00 17.35833 C 81.7500 % 14.21 C
338 25-08-2019 01:00:00 16.96667 C 82.7500 % 14.01 C
339 25-08-2019 02:00:00 16.15833 C 85.2500 % 13.68 C
340 25-08-2019 03:00:00 15.53333 C 88.0000 % 13.55 C
341 25-08-2019 04:00:00 15.19167 C 88.4167 % 13.29 C
342 25-08-2019 05:00:00 14.65833 C 89.8333 % 13.01 C
343 25-08-2019 06:00:00 14.41667 C 90.8333 % 12.94 C
344 25-08-2019 07:00:00 14.80833 C 91.4167 % 13.42 C
345 25-08-2019 08:00:00 15.84167 C 90.5000 % 14.29 C
346 25-08-2019 09:00:00 17.2 C 88.3333 % 15.25 C
347 25-08-2019 10:00:00 18.78333 C 84.6667 % 16.15 C
348 25-08-2019 11:00:00 21.64167 C 77.4167 % 17.52 C
349 25-08-2019 12:00:00 24.54167 C 70.0000 % 18.71 C
350 25-08-2019 13:00:00 26.76667 C 62.9167 % 19.11 C
Sensor: Nr:Datum:Temp:Feuchte:Taupunkt:
Aussen-T/F 351 25-08-2019 14:00:00 28.375 C 57.0000 % 19.03 C
352 25-08-2019 15:00:00 30.28333 C 51.4167 % 19.14 C
353 25-08-2019 16:00:00 31.18333 C 49.6667 % 19.41 C
354 25-08-2019 17:00:00 32.3 C 47.0000 % 19.54 C
355 25-08-2019 18:00:00 30.05 C 52.9167 % 19.39 C
356 25-08-2019 19:00:00 27.125 C 63.3333 % 19.55 C
357 25-08-2019 20:00:00 24.31667 C 71.4167 % 18.81 C
358 25-08-2019 21:00:00 22.98333 C 77.1667 % 18.77 C
359 25-08-2019 22:00:00 21.19167 C 82.4167 % 18.08 C
360 25-08-2019 23:00:00 20.10833 C 85.4167 % 17.58 C
361 26-08-2019 00:00:00 19.475 C 88.0833 % 17.45 C
362 26-08-2019 01:00:00 19.14167 C 89.1667 % 17.31 C
363 26-08-2019 02:00:00 18.53333 C 90.7500 % 16.99 C
364 26-08-2019 03:00:00 18.025 C 91.6667 % 16.65 C
365 26-08-2019 04:00:00 17.41667 C 93.0000 % 16.27 C
366 26-08-2019 05:00:00 17.14167 C 94.1667 % 16.2 C
367 26-08-2019 06:00:00 16.76667 C 94.3333 % 15.85 C
368 26-08-2019 07:00:00 16.71667 C 95.2500 % 15.95 C
369 26-08-2019 08:00:00 17.475 C 96.0000 % 16.83 C
370 26-08-2019 09:00:00 18.55 C 95.8333 % 17.87 C
371 26-08-2019 10:00:00 20.15833 C 92.4167 % 18.89 C
372 26-08-2019 11:00:00 22.95 C 83.6667 % 20.04 C
373 26-08-2019 12:00:00 25.70833 C 72.8333 % 20.46 C
374 26-08-2019 13:00:00 28.3 C 60.3333 % 19.88 C
375 26-08-2019 14:00:00 30.01667 C 52.6667 % 19.29 C
Sensor: Nr:Datum:Temp:Feuchte:Taupunkt:
Aussen-T/F 376 26-08-2019 15:00:00 30.85833 C 50.5000 % 19.38 C
377 26-08-2019 16:00:00 28.55 C 59.1667 % 19.8 C
378 26-08-2019 17:00:00 27.475 C 67.2500 % 20.86 C
379 26-08-2019 18:00:00 27.10833 C 70.0833 % 21.18 C
380 26-08-2019 19:00:00 28.06667 C 66.0000 % 21.11 C
381 26-08-2019 20:00:00 24.69167 C 73.5833 % 19.65 C
382 26-08-2019 21:00:00 22.45 C 80.5000 % 18.93 C
383 26-08-2019 22:00:00 21.09167 C 84.7500 % 18.42 C
384 26-08-2019 23:00:00 20.175 C 87.8333 % 18.09 C
385 27-08-2019 00:00:00 19.40833 C 89.9167 % 17.71 C
386 27-08-2019 01:00:00 19.01667 C 92.0000 % 17.69 C
387 27-08-2019 02:00:00 18.39167 C 92.8333 % 17.21 C
388 27-08-2019 03:00:00 17.91667 C 94.0833 % 16.95 C
389 27-08-2019 04:00:00 17.55833 C 94.2500 % 16.62 C
390 27-08-2019 05:00:00 17.15833 C 95.0000 % 16.35 C
391 27-08-2019 06:00:00 16.79167 C 95.3333 % 16.04 C
392 27-08-2019 07:00:00 16.85 C 96.0000 % 16.21 C
393 27-08-2019 08:00:00 17.325 C 96.5000 % 16.76 C
394 27-08-2019 09:00:00 18.4 C 97.0000 % 17.91 C
395 27-08-2019 10:00:00 19.78333 C 96.0833 % 19.14 C
396 27-08-2019 11:00:00 22.275 C 90.2500 % 20.6 C
397 27-08-2019 12:00:00 25.41667 C 76.2500 % 20.93 C
398 27-08-2019 13:00:00 28.99167 C 57.0000 % 19.61 C
399 27-08-2019 14:00:00 30.54167 C 49.2500 % 18.69 C
400 27-08-2019 15:00:00 31.89167 C 43.0833 % 17.78 C
Sensor: Nr:Datum:Temp:Feuchte:Taupunkt:
Aussen-T/F 401 27-08-2019 16:00:00 33.23333 C 41.6667 % 18.45 C
402 27-08-2019 17:00:00 32.29167 C 47.5000 % 19.71 C
403 27-08-2019 18:00:00 29.55833 C 57.0833 % 20.16 C
404 27-08-2019 19:00:00 27.7 C 63.8333 % 20.22 C
405 27-08-2019 20:00:00 23.50833 C 81.8333 % 20.22 C
406 27-08-2019 21:00:00 22.09167 C 84.5833 % 19.37 C
407 27-08-2019 22:00:00 21.14167 C 86.4167 % 18.78 C
408 27-08-2019 23:00:00 20.43333 C 88.1667 % 18.41 C
409 28-08-2019 00:00:00 19.9 C 90.0833 % 18.23 C
410 28-08-2019 01:00:00 19.61667 C 91.7500 % 18.24 C
411 28-08-2019 02:00:00 19.24167 C 92.6667 % 18.02 C
412 28-08-2019 03:00:00 18.71667 C 93.5000 % 17.65 C
413 28-08-2019 04:00:00 18.33333 C 93.9167 % 17.34 C
414 28-08-2019 05:00:00 17.96667 C 94.4167 % 17.06 C
415 28-08-2019 06:00:00 18.01667 C 95.0833 % 17.22 C
416 28-08-2019 07:00:00 17.85833 C 95.2500 % 17.09 C
417 28-08-2019 08:00:00 18.64167 C 95.7500 % 17.95 C
418 28-08-2019 09:00:00 19.75833 C 93.2500 % 18.64 C
419 28-08-2019 10:00:00 22.45 C 77.7500 % 18.37 C
420 28-08-2019 11:00:00 23.975 C 71.6667 % 18.54 C
421 28-08-2019 12:00:00 24.49167 C 70.8333 % 18.85 C
422 28-08-2019 13:00:00 26.54167 C 58.8333 % 17.83 C
423 28-08-2019 14:00:00 29.44167 C 50.3333 % 18.03 C
424 28-08-2019 15:00:00 30.35833 C 44.2500 % 16.83 C
425 28-08-2019 16:00:00 31.55833 C 41.3333 % 16.83 C
Sensor: Nr:Datum:Temp:Feuchte:Taupunkt:
Aussen-T/F 426 28-08-2019 17:00:00 31.80833 C 42.0000 % 17.3 C
427 28-08-2019 18:00:00 31.18333 C 45.7500 % 18.1 C
428 28-08-2019 19:00:00 27.875 C 52.1667 % 17.16 C
429 28-08-2019 20:00:00 25.59167 C 56.5833 % 16.33 C
430 28-08-2019 21:00:00 24.2 C 62.5000 % 16.59 C
431 28-08-2019 22:00:00 22.43333 C 70.0833 % 16.71 C
432 28-08-2019 23:00:00 21.38333 C 74.3333 % 16.63 C
433 29-08-2019 00:00:00 20.775 C 76.8333 % 16.56 C
434 29-08-2019 01:00:00 20.10833 C 79.0833 % 16.37 C
435 29-08-2019 02:00:00 19.2 C 82.1667 % 16.08 C
436 29-08-2019 03:00:00 18.225 C 84.8333 % 15.63 C
437 29-08-2019 04:00:00 17.53333 C 88.0000 % 15.52 C
438 29-08-2019 05:00:00 17.78333 C 89.9167 % 16.11 C
439 29-08-2019 06:00:00 18.34167 C 89.8333 % 16.64 C
440 29-08-2019 07:00:00 19.04167 C 89.2500 % 17.23 C
441 29-08-2019 08:00:00 19.89167 C 87.0833 % 17.68 C
442 29-08-2019 09:00:00 20.7 C 84.8333 % 18.06 C
443 29-08-2019 10:00:00 21.175 C 86.5000 % 18.83 C
444 29-08-2019 11:00:00 22.13333 C 82.5000 % 19.01 C
445 29-08-2019 12:00:00 23.29167 C 77.6667 % 19.17 C
446 29-08-2019 13:00:00 25.45 C 68.7500 % 19.29 C
447 29-08-2019 14:00:00 26.78333 C 64.8333 % 19.61 C
448 29-08-2019 15:00:00 27.53333 C 62.5833 % 19.75 C
449 29-08-2019 16:00:00 27.875 C 59.9167 % 19.37 C
450 29-08-2019 17:00:00 27.28333 C 60.2500 % 18.9 C
Sensor: Nr:Datum:Temp:Feuchte:Taupunkt:
Aussen-T/F 451 29-08-2019 18:00:00 26.44167 C 60.8333 % 18.27 C
452 29-08-2019 19:00:00 24.73333 C 64.6667 % 17.63 C
453 29-08-2019 20:00:00 22.80833 C 70.6667 % 17.2 C
454 29-08-2019 21:00:00 20.89167 C 76.7500 % 16.66 C
455 29-08-2019 22:00:00 20.525 C 78.8333 % 16.72 C
456 29-08-2019 23:00:00 20.48333 C 79.5833 % 16.83 C
457 30-08-2019 00:00:00 20.30833 C 79.0000 % 16.55 C
458 30-08-2019 01:00:00 19.18333 C 82.9167 % 16.21 C
459 30-08-2019 02:00:00 18.2 C 86.0833 % 15.83 C
460 30-08-2019 03:00:00 17.48333 C 88.4167 % 15.55 C
461 30-08-2019 04:00:00 16.65833 C 90.0833 % 15.03 C
462 30-08-2019 05:00:00 15.975 C 92.7500 % 14.8 C
463 30-08-2019 06:00:00 15.91667 C 93.2500 % 14.83 C
464 30-08-2019 07:00:00 15.41667 C 93.6667 % 14.4 C
465 30-08-2019 08:00:00 16.09167 C 94.4167 % 15.19 C
466 30-08-2019 09:00:00 17.96667 C 88.6667 % 16.07 C
467 30-08-2019 10:00:00 19.41667 C 81.7500 % 16.22 C
468 30-08-2019 11:00:00 20.825 C 76.0000 % 16.44 C
469 30-08-2019 12:00:00 22.16667 C 72.6667 % 17.03 C
470 30-08-2019 13:00:00 23.59167 C 68.2500 % 17.4 C
471 30-08-2019 14:00:00 25 C 60.8333 % 16.91 C
472 30-08-2019 15:00:00 26.16667 C 51.2500 % 15.31 C
473 30-08-2019 16:00:00 27.98333 C 45.6667 % 15.17 C
474 30-08-2019 17:00:00 29.66667 C 37.8333 % 13.77 C
475 30-08-2019 18:00:00 29.54167 C 37.5833 % 13.56 C
Sensor: Nr:Datum:Temp:Feuchte:Taupunkt:
Aussen-T/F 476 30-08-2019 19:00:00 27.175 C 47.0833 % 14.91 C
477 30-08-2019 20:00:00 23 C 55.5833 % 13.64 C
478 30-08-2019 21:00:00 20.38333 C 65.0833 % 13.61 C
479 30-08-2019 22:00:00 18.64167 C 72.5833 % 13.62 C
480 30-08-2019 23:00:00 17.38333 C 77.2500 % 13.36 C
481 31-08-2019 00:00:00 16.65 C 81.0000 % 13.38 C
482 31-08-2019 01:00:00 15.825 C 84.1667 % 13.16 C
483 31-08-2019 02:00:00 15.21667 C 86.2500 % 12.94 C
484 31-08-2019 03:00:00 14.75 C 88.5000 % 12.87 C
485 31-08-2019 04:00:00 14.31667 C 90.1667 % 12.73 C
486 31-08-2019 05:00:00 14.15 C 91.5833 % 12.8 C
487 31-08-2019 06:00:00 14.1 C 92.0000 % 12.82 C
488 31-08-2019 07:00:00 14.10833 C 92.6667 % 12.94 C
489 31-08-2019 08:00:00 14.76667 C 92.6667 % 13.59 C
490 31-08-2019 09:00:00 15.89167 C 92.2500 % 14.64 C
491 31-08-2019 10:00:00 17.8 C 89.0000 % 15.96 C
492 31-08-2019 11:00:00 20.6 C 81.2500 % 17.27 C
493 31-08-2019 12:00:00 23.625 C 73.0833 % 18.52 C
494 31-08-2019 13:00:00 28.49167 C 54.5833 % 18.45 C
495 31-08-2019 14:00:00 30.36667 C 47.3333 % 17.9 C
496 31-08-2019 15:00:00 31.43333 C 43.3333 % 17.46 C
497 31-08-2019 16:00:00 32.48333 C 42.3333 % 18.03 C
498 31-08-2019 17:00:00 33.89167 C 39.8333 % 18.32 C
499 31-08-2019 18:00:00 33.71667 C 40.0000 % 18.23 C
500 31-08-2019 19:00:00 31.13333 C 48.8333 % 19.1 C
Sensor: Nr:Datum:Temp:Feuchte:Taupunkt:
Aussen-T/F 501 31-08-2019 20:00:00 25.89167 C 60.0000 % 17.53 C
502 31-08-2019 21:00:00 24.875 C 62.0000 % 17.09 C
503 31-08-2019 22:00:00 24.58333 C 70.5000 % 18.86 C
504 31-08-2019 23:00:00 20.69167 C 87.5833 % 18.56 C
505 01-09-2019 00:00:00 19.66667 C 91.2500 % 18.2 C
506 01-09-2019 01:00:00 19.34167 C 90.9167 % 17.82 C
507 01-09-2019 02:00:00 19.10833 C 85.9167 % 16.7 C
508 01-09-2019 03:00:00 18.325 C 84.0833 % 15.59 C
509 01-09-2019 04:00:00 17.88333 C 80.1667 % 14.42 C
510 01-09-2019 05:00:00 17.84167 C 79.0833 % 14.17 C
511 01-09-2019 06:00:00 17.30833 C 79.5833 % 13.75 C
512 01-09-2019 07:00:00 16.1 C 85.6667 % 13.7 C
513 01-09-2019 08:00:00 17.48333 C 82.5833 % 14.49 C
514 01-09-2019 09:00:00 18.13333 C 80.5000 % 14.73 C
515 01-09-2019 10:00:00 19.10833 C 76.5000 % 14.88 C
516 01-09-2019 11:00:00 20.025 C 74.2500 % 15.3 C
517 01-09-2019 12:00:00 20.05 C 74.8333 % 15.45 C
518 01-09-2019 13:00:00 19.69167 C 77.9167 % 15.73 C
519 01-09-2019 14:00:00 20.075 C 75.6667 % 15.65 C
520 01-09-2019 15:00:00 20.61667 C 71.6667 % 15.32 C
521 01-09-2019 16:00:00 20.38333 C 68.0000 % 14.28 C
522 01-09-2019 17:00:00 19.975 C 65.4167 % 13.3 C
523 01-09-2019 18:00:00 20.75833 C 60.5833 % 12.86 C
524 01-09-2019 19:00:00 20.60833 C 57.9167 % 12.04 C
525 01-09-2019 20:00:00 18.38333 C 66.5000 % 12.04 C
Sensor: Nr:Datum:Temp:Feuchte:Taupunkt:
Aussen-T/F 526 01-09-2019 21:00:00 16.68333 C 72.3333 % 11.69 C
527 01-09-2019 22:00:00 16.39167 C 71.4167 % 11.21 C
528 01-09-2019 23:00:00 15.59167 C 75.0000 % 11.18 C
529 02-09-2019 00:00:00 14.44167 C 75.5000 % 10.17 C
530 02-09-2019 01:00:00 13.29167 C 77.8333 % 9.51 C
531 02-09-2019 02:00:00 13.3 C 80.2500 % 9.97 C
532 02-09-2019 03:00:00 13.025 C 82.5000 % 10.12 C
533 02-09-2019 04:00:00 12 C 83.9167 % 9.37 C
534 02-09-2019 05:00:00 11.21667 C 85.9167 % 8.95 C
535 02-09-2019 06:00:00 10.15 C 89.0833 % 8.43 C
536 02-09-2019 07:00:00 9.73333 C 91.6667 % 8.44 C
537 02-09-2019 08:00:00 10.03333 C 92.9167 % 8.94 C
538 02-09-2019 09:00:00 10.83333 C 92.5833 % 9.68 C
539 02-09-2019 10:00:00 12.85833 C 88.0833 % 10.94 C
540 02-09-2019 11:00:00 16.2 C 66.4167 % 9.94 C
541 02-09-2019 12:00:00 17.53333 C 56.5000 % 8.8 C
542 02-09-2019 13:00:00 18.70833 C 49.6667 % 7.98 C
543 02-09-2019 14:00:00 19.83333 C 46.2500 % 7.97 C
544 02-09-2019 15:00:00 20.175 C 45.2500 % 7.96 C
545 02-09-2019 16:00:00 21.80833 C 41.5833 % 8.19 C
546 02-09-2019 17:00:00 23.09167 C 37.9167 % 7.98 C
547 02-09-2019 18:00:00 22.99167 C 37.3333 % 7.66 C
548 02-09-2019 19:00:00 20.575 C 46.7500 % 8.8 C
549 02-09-2019 20:00:00 16.9 C 56.3333 % 8.16 C
550 02-09-2019 21:00:00 15.39167 C 60.6667 % 7.84 C
Sensor: Nr:Datum:Temp:Feuchte:Taupunkt:
Aussen-T/F 551 02-09-2019 22:00:00 13.475 C 70.1667 % 8.15 C
552 02-09-2019 23:00:00 12.98333 C 72.7500 % 8.21 C
553 03-09-2019 00:00:00 12.39167 C 74.8333 % 8.06 C
554 03-09-2019 01:00:00 12.125 C 76.5000 % 8.12 C
555 03-09-2019 02:00:00 10.89167 C 79.0833 % 7.41 C
556 03-09-2019 03:00:00 10.175 C 81.5833 % 7.17 C
557 03-09-2019 04:00:00 10.08333 C 83.8333 % 7.48 C
558 03-09-2019 05:00:00 9.45 C 85.0833 % 7.07 C
559 03-09-2019 06:00:00 8.91667 C 87.0833 % 6.89 C
560 03-09-2019 07:00:00 8.65833 C 88.8333 % 6.92 C
561 03-09-2019 08:00:00 9.08333 C 89.7500 % 7.49 C
562 03-09-2019 09:00:00 10.375 C 88.9167 % 8.63 C
563 03-09-2019 10:00:00 13.225 C 81.5833 % 10.15 C
564 03-09-2019 11:00:00 17.34167 C 63.2500 % 10.29 C
565 03-09-2019 12:00:00 19.95833 C 53.5000 % 10.24 C
566 03-09-2019 13:00:00 21.25 C 49.6667 % 10.32 C
567 03-09-2019 14:00:00 22.64167 C 45.5000 % 10.28 C
568 03-09-2019 15:00:00 23.75 C 45.8333 % 11.39 C
569 03-09-2019 16:00:00 23.58333 C 49.8333 % 12.51 C
570 03-09-2019 17:00:00 23.65 C 50.9167 % 12.9 C
571 03-09-2019 18:00:00 23.225 C 52.5833 % 13 C
572 03-09-2019 19:00:00 21.11667 C 58.7500 % 12.73 C
573 03-09-2019 20:00:00 18.86667 C 65.9167 % 12.36 C
574 03-09-2019 21:00:00 16.325 C 75.0000 % 11.89 C
575 03-09-2019 22:00:00 15.33333 C 79.2500 % 11.76 C
Sensor: Nr:Datum:Temp:Feuchte:Taupunkt:
Aussen-T/F 576 03-09-2019 23:00:00 14.05 C 83.3333 % 11.27 C
577 04-09-2019 00:00:00 13.05 C 87.0000 % 10.94 C
578 04-09-2019 01:00:00 12.35 C 89.4167 % 10.66 C
579 04-09-2019 02:00:00 11.85833 C 90.6667 % 10.38 C
580 04-09-2019 03:00:00 11.325 C 91.9167 % 10.06 C
581 04-09-2019 04:00:00 10.74167 C 92.5833 % 9.59 C
582 04-09-2019 05:00:00 10.36667 C 93.5833 % 9.38 C
583 04-09-2019 06:00:00 10.15833 C 94.2500 % 9.28 C
584 04-09-2019 07:00:00 10.09167 C 94.7500 % 9.29 C
585 04-09-2019 08:00:00 10.675 C 95.3333 % 9.96 C
586 04-09-2019 09:00:00 13.11667 C 92.2500 % 11.89 C
587 04-09-2019 10:00:00 14.875 C 85.4167 % 12.45 C
588 04-09-2019 11:00:00 18.09167 C 72.6667 % 13.11 C
589 04-09-2019 12:00:00 19.78333 C 65.9167 % 13.23 C
590 04-09-2019 13:00:00 21.16667 C 62.0000 % 13.6 C
591 04-09-2019 14:00:00 22.59167 C 57.5833 % 13.8 C
592 04-09-2019 15:00:00 23.85 C 53.5000 % 13.84 C
593 04-09-2019 16:00:00 25.11667 C 50.6667 % 14.17 C
594 04-09-2019 17:00:00 26.875 C 44.8333 % 13.89 C
595 04-09-2019 18:00:00 25.04167 C 47.0000 % 12.95 C
596 04-09-2019 19:00:00 23.58333 C 52.2500 % 13.23 C
597 04-09-2019 20:00:00 19.81667 C 69.4167 % 14.06 C
598 04-09-2019 21:00:00 17.625 C 85.0000 % 15.07 C
599 04-09-2019 22:00:00 16.28333 C 90.3333 % 14.7 C
600 04-09-2019 23:00:00 15.64167 C 90.9167 % 14.16 C
Sensor: Nr:Datum:Temp:Feuchte:Taupunkt:
Aussen-T/F 601 05-09-2019 00:00:00 15.6 C 91.0000 % 14.14 C
602 05-09-2019 01:00:00 15.41667 C 89.1667 % 13.64 C
603 05-09-2019 02:00:00 14.29167 C 86.8333 % 12.13 C
604 05-09-2019 03:00:00 13.975 C 86.6667 % 11.79 C
605 05-09-2019 04:00:00 14.075 C 85.0000 % 11.59 C
606 05-09-2019 05:00:00 13.48333 C 84.1667 % 10.87 C
607 05-09-2019 06:00:00 12.56667 C 86.0000 % 10.29 C
608 05-09-2019 07:00:00 12.20833 C 86.9167 % 10.1 C
609 05-09-2019 08:00:00 12.58333 C 85.4167 % 10.2 C
610 05-09-2019 09:00:00 13.59167 C 82.2500 % 10.63 C
611 05-09-2019 10:00:00 15.475 C 77.3333 % 11.53 C
612 05-09-2019 11:00:00 16.775 C 70.4167 % 11.37 C
613 05-09-2019 12:00:00 17.09167 C 67.3333 % 11 C
614 05-09-2019 13:00:00 18.1 C 60.9167 % 10.45 C
615 05-09-2019 14:00:00 18.09167 C 62.9167 % 10.92 C
616 05-09-2019 15:00:00 18.5 C 57.5833 % 9.98 C
617 05-09-2019 16:00:00 18.91667 C 55.9167 % 9.93 C
618 05-09-2019 17:00:00 17.225 C 63.8333 % 10.32 C
619 05-09-2019 18:00:00 16.4 C 67.6667 % 10.41 C
620 05-09-2019 19:00:00 16.46667 C 64.3333 % 9.72 C
621 05-09-2019 20:00:00 15.70833 C 69.0833 % 10.06 C
622 05-09-2019 21:00:00 14.93333 C 70.2500 % 9.57 C
623 05-09-2019 22:00:00 14.49167 C 72.5000 % 9.61 C
624 05-09-2019 23:00:00 13.94167 C 74.0000 % 9.39 C
625 06-09-2019 00:00:00 12.025 C 79.8333 % 8.65 C
Sensor: Nr:Datum:Temp:Feuchte:Taupunkt:
Aussen-T/F 626 06-09-2019 01:00:00 11.23333 C 82.8333 % 8.43 C
627 06-09-2019 02:00:00 10.40833 C 86.5000 % 8.26 C
628 06-09-2019 03:00:00 9.875 C 88.0833 % 8 C
629 06-09-2019 04:00:00 9.00833 C 89.4167 % 7.36 C
630 06-09-2019 05:00:00 8.075 C 91.5000 % 6.78 C
631 06-09-2019 06:00:00 7.56667 C 92.7500 % 6.47 C
632 06-09-2019 07:00:00 7.31667 C 93.6667 % 6.37 C
633 06-09-2019 08:00:00 7.85 C 94.9167 % 7.09 C
634 06-09-2019 09:00:00 8.75 C 95.0833 % 8.01 C
635 06-09-2019 10:00:00 10.175 C 95.0000 % 9.41 C
636 06-09-2019 11:00:00 12.55833 C 83.1667 % 9.78 C
637 06-09-2019 12:00:00 15.03333 C 64.4167 % 8.38 C
638 06-09-2019 13:00:00 16.51667 C 57.9167 % 8.21 C
639 06-09-2019 14:00:00 18.3 C 49.5833 % 7.59 C
640 06-09-2019 15:00:00 19.475 C 44.9167 % 7.21 C
641 06-09-2019 16:00:00 20.7 C 39.8333 % 6.57 C
642 06-09-2019 17:00:00 22.36667 C 37.2500 % 7.08 C
643 06-09-2019 18:00:00 22.25 C 39.3333 % 7.77 C
644 06-09-2019 19:00:00 19.41667 C 48.3333 % 8.23 C
645 06-09-2019 20:00:00 16.04167 C 56.4167 % 7.38 C
646 06-09-2019 21:00:00 14.65 C 60.5833 % 7.12 C
647 06-09-2019 22:00:00 12.74167 C 68.5000 % 7.1 C
648 06-09-2019 23:00:00 12.69167 C 71.4167 % 7.66 C
649 07-09-2019 00:00:00 12.25833 C 73.7500 % 7.72 C
650 07-09-2019 01:00:00 12.41667 C 73.6667 % 7.85 C
Sensor: Nr:Datum:Temp:Feuchte:Taupunkt:
Aussen-T/F 651 07-09-2019 02:00:00 12.19167 C 75.0000 % 7.9 C
652 07-09-2019 03:00:00 12.375 C 74.7500 % 8.03 C
653 07-09-2019 04:00:00 12.69167 C 74.2500 % 8.23 C
654 07-09-2019 05:00:00 12.64167 C 74.5833 % 8.25 C
655 07-09-2019 06:00:00 12.29167 C 76.9167 % 8.36 C
656 07-09-2019 07:00:00 11.96667 C 84.7500 % 9.48 C
657 07-09-2019 08:00:00 11.78333 C 90.5000 % 10.28 C
658 07-09-2019 09:00:00 11.80833 C 92.9167 % 10.7 C
659 07-09-2019 10:00:00 12.225 C 94.0000 % 11.29 C
660 07-09-2019 11:00:00 12.80833 C 93.8333 % 11.84 C
661 07-09-2019 12:00:00 13.475 C 93.5833 % 12.46 C
662 07-09-2019 13:00:00 14.19167 C 92.6667 % 13.02 C
663 07-09-2019 14:00:00 14.46667 C 91.6667 % 13.13 C
664 07-09-2019 15:00:00 14.93333 C 90.2500 % 13.35 C
665 07-09-2019 16:00:00 15.25 C 89.3333 % 13.51 C
666 07-09-2019 17:00:00 15.30833 C 89.2500 % 13.55 C
667 07-09-2019 18:00:00 14.29167 C 90.7500 % 12.8 C
668 07-09-2019 19:00:00 13.34167 C 91.4167 % 11.97 C
669 07-09-2019 20:00:00 12.64167 C 93.0000 % 11.54 C
670 07-09-2019 21:00:00 12.00833 C 93.3333 % 10.97 C
671 07-09-2019 22:00:00 11.8 C 94.4167 % 10.93 C
672 07-09-2019 23:00:00 11.725 C 95.0000 % 10.95 C
673 08-09-2019 00:00:00 11.7 C 95.0000 % 10.93 C
674 08-09-2019 01:00:00 11.75833 C 95.6667 % 11.09 C
675 08-09-2019 02:00:00 11.29167 C 95.5000 % 10.6 C
Sensor: Nr:Datum:Temp:Feuchte:Taupunkt:
Aussen-T/F 676 08-09-2019 03:00:00 11.3 C 96.0000 % 10.69 C
677 08-09-2019 04:00:00 11.7 C 96.3333 % 11.14 C
678 08-09-2019 05:00:00 11.90833 C 96.0000 % 11.29 C
679 08-09-2019 06:00:00 12.075 C 96.7500 % 11.57 C
680 08-09-2019 07:00:00 12.20833 C 96.4167 % 11.66 C
681 08-09-2019 08:00:00 12.31667 C 96.0000 % 11.7 C
682 08-09-2019 09:00:00 12.325 C 95.4167 % 11.61 C
683 08-09-2019 10:00:00 12.575 C 95.6667 % 11.9 C
684 08-09-2019 11:00:00 12.625 C 96.0000 % 12 C
685 08-09-2019 12:00:00 12.81667 C 95.8333 % 12.17 C
686 08-09-2019 13:00:00 13.94167 C 93.5000 % 12.91 C
687 08-09-2019 14:00:00 14.875 C 88.3333 % 12.96 C
688 08-09-2019 15:00:00 15.73333 C 84.0833 % 13.05 C
689 08-09-2019 16:00:00 15.65833 C 84.8333 % 13.12 C
690 08-09-2019 17:00:00 13.49167 C 92.6667 % 12.33 C
691 08-09-2019 18:00:00 12.8 C 94.2500 % 11.9 C
692 08-09-2019 19:00:00 12.96667 C 95.4167 % 12.25 C
693 08-09-2019 20:00:00 12.56667 C 95.0833 % 11.8 C
694 08-09-2019 21:00:00 12.1 C 95.4167 % 11.39 C
695 08-09-2019 22:00:00 11.81667 C 96.0000 % 11.2 C
696 08-09-2019 23:00:00 11.71667 C 96.0000 % 11.1 C
697 09-09-2019 00:00:00 11.45 C 96.0000 % 10.84 C
698 09-09-2019 01:00:00 11.26667 C 96.0833 % 10.67 C
699 09-09-2019 02:00:00 11.29167 C 96.8333 % 10.81 C
700 09-09-2019 03:00:00 11.36667 C 97.0000 % 10.91 C
Sensor: Nr:Datum:Temp:Feuchte:Taupunkt:
Aussen-T/F 701 09-09-2019 04:00:00 11.36667 C 97.0000 % 10.91 C
702 09-09-2019 05:00:00 11.29167 C 97.0000 % 10.83 C
703 09-09-2019 06:00:00 11.3 C 97.0000 % 10.84 C
704 09-09-2019 07:00:00 11.275 C 97.0000 % 10.82 C
705 09-09-2019 08:00:00 11.39167 C 97.0000 % 10.93 C
706 09-09-2019 09:00:00 12.01667 C 97.0000 % 11.56 C
707 09-09-2019 10:00:00 12.23333 C 97.0000 % 11.77 C
708 09-09-2019 11:00:00 12.55833 C 96.2500 % 11.98 C
709 09-09-2019 12:00:00 13.15 C 91.5833 % 11.81 C
710 09-09-2019 13:00:00 14.2 C 86.5833 % 12 C
711 09-09-2019 14:00:00 14.81667 C 79.7500 % 11.36 C
712 09-09-2019 15:00:00 15.175 C 80.1667 % 11.78 C
713 09-09-2019 16:00:00 15.475 C 77.3333 % 11.53 C
714 09-09-2019 17:00:00 15.74167 C 73.7500 % 11.07 C
715 09-09-2019 18:00:00 16.33333 C 73.7500 % 11.64 C
716 09-09-2019 19:00:00 14.35 C 82.0000 % 11.32 C
717 09-09-2019 20:00:00 12.00833 C 87.7500 % 10.04 C
718 09-09-2019 21:00:00 10.79167 C 90.6667 % 9.33 C
719 09-09-2019 22:00:00 10.05 C 92.6667 % 8.92 C
720 09-09-2019 23:00:00 9.30833 C 93.8333 % 8.37 C
721 10-09-2019 00:00:00 8.75833 C 94.7500 % 7.96 C
722 10-09-2019 01:00:00 8.44167 C 95.0833 % 7.7 C
723 10-09-2019 02:00:00 8.3 C 95.7500 % 7.66 C
724 10-09-2019 03:00:00 8.625 C 96.0000 % 8.02 C
725 10-09-2019 04:00:00 8.65 C 96.0000 % 8.05 C
Sensor: Nr:Datum:Temp:Feuchte:Taupunkt:
Aussen-T/F 726 10-09-2019 05:00:00 8.55833 C 96.1667 % 7.98 C
727 10-09-2019 06:00:00 8.2 C 96.7500 % 7.72 C
728 10-09-2019 07:00:00 8.225 C 97.0000 % 7.78 C
729 10-09-2019 08:00:00 8.21667 C 97.0000 % 7.77 C
730 10-09-2019 09:00:00 8.45833 C 97.0000 % 8.01 C
731 10-09-2019 10:00:00 9.05 C 97.0000 % 8.6 C
732 10-09-2019 11:00:00 9.94167 C 97.0000 % 9.49 C
733 10-09-2019 12:00:00 11.78333 C 94.3333 % 10.9 C
734 10-09-2019 13:00:00 14.85833 C 78.0000 % 11.06 C
735 10-09-2019 14:00:00 17.25 C 64.2500 % 10.44 C
736 10-09-2019 15:00:00 18.43333 C 58.3333 % 10.11 C
737 10-09-2019 16:00:00 19.65 C 52.0000 % 9.53 C
738 10-09-2019 17:00:00 18.38333 C 67.1667 % 12.19 C
739 10-09-2019 18:00:00 18.33333 C 70.0000 % 12.77 C
740 10-09-2019 19:00:00 16.4 C 72.3333 % 11.41 C
741 10-09-2019 20:00:00 13.775 C 75.0833 % 9.44 C
742 10-09-2019 21:00:00 12.03333 C 83.0000 % 9.24 C
743 10-09-2019 22:00:00 10.66667 C 86.9167 % 8.58 C
744 10-09-2019 23:00:00 9.78333 C 88.7500 % 8.02 C

Maximal/Minimal-Werte vom 11.08.2019 - 10.09.2019

Sensor Min Max Avg
Temp
(Aussen-T/F)
7.2 °C
06-09-2019  07:10:00
34.3 °C
27-08-2019  17:00:00
17.61 °C
Feuchte
(Aussen-T/F)
30 %
24-08-2019  18:00:00
98 %
18-08-2019  09:25:00
78.64 %
Taupunkt
(Aussen-T/F)
6.37 C
06-09-2019  07:00:00
21.18 C
26-08-2019  18:00:00
13.33 C

Die Daten stammen von einer Davis Vantage Pro 2 Wetter-Station und werden unter Linux mit der Software wview2wettercgi und aufbereitet. Alle Angaben erfolgen ohne Gewähr für ihre Vollständigkeit oder Richtigkeit.
Kontakt: Rainer Krienke krienke@uni-koblenz.de . Meine Webseiten an der Uni Koblenz oder privat.
Version: $Revision: 0.78 $